sensor_id;sensor_type;location;lat;lon;timestamp;pressure;altitude;pressure_sealevel;temperature;humidity
12471;BME280;36499;46.484;13.832;2022-08-19T00:00:39;92941.09;;;18.37;100.00
12471;BME280;36499;46.484;13.832;2022-08-19T00:03:07;92942.16;;;18.41;100.00
12471;BME280;36499;46.484;13.832;2022-08-19T00:05:34;92949.06;;;18.52;100.00
12471;BME280;36499;46.484;13.832;2022-08-19T00:08:02;92955.91;;;18.63;99.84
12471;BME280;36499;46.484;13.832;2022-08-19T00:10:29;92960.41;;;18.63;99.08
12471;BME280;36499;46.484;13.832;2022-08-19T00:12:57;92946.66;;;18.71;98.65
12471;BME280;36499;46.484;13.832;2022-08-19T00:15:24;92932.38;;;18.72;98.98
12471;BME280;36499;46.484;13.832;2022-08-19T00:17:53;92931.88;;;18.75;98.55
12471;BME280;36499;46.484;13.832;2022-08-19T00:20:22;92910.22;;;18.78;98.85
12471;BME280;36499;46.484;13.832;2022-08-19T00:22:49;92868.19;;;18.77;98.44
12471;BME280;36499;46.484;13.832;2022-08-19T00:25:17;92862.16;;;18.71;98.81
12471;BME280;36499;46.484;13.832;2022-08-19T00:27:45;92856.88;;;18.71;98.18
12471;BME280;36499;46.484;13.832;2022-08-19T00:30:12;92851.03;;;18.74;98.02
12471;BME280;36499;46.484;13.832;2022-08-19T00:32:40;92821.72;;;18.76;97.97
12471;BME280;36499;46.484;13.832;2022-08-19T00:35:09;92799.81;;;18.75;97.91
12471;BME280;36499;46.484;13.832;2022-08-19T00:37:37;92794.78;;;18.74;97.75
12471;BME280;36499;46.484;13.832;2022-08-19T00:40:11;92788.44;;;18.75;97.91
12471;BME280;36499;46.484;13.832;2022-08-19T00:42:39;92782.41;;;18.64;97.05
12471;BME280;36499;46.484;13.832;2022-08-19T00:45:13;92780.03;;;18.62;96.88
12471;BME280;36499;46.484;13.832;2022-08-19T00:47:40;92776.06;;;18.65;94.59
12471;BME280;36499;46.484;13.832;2022-08-19T00:50:13;92774.50;;;18.49;95.19
12471;BME280;36499;46.484;13.832;2022-08-19T00:52:45;92754.19;;;18.44;96.31
12471;BME280;36499;46.484;13.832;2022-08-19T00:55:18;92759.72;;;18.48;96.37
12471;BME280;36499;46.484;13.832;2022-08-19T00:57:51;92755.50;;;18.47;96.53
12471;BME280;36499;46.484;13.832;2022-08-19T01:00:22;92757.88;;;18.48;96.69
12471;BME280;36499;46.484;13.832;2022-08-19T01:02:50;92771.34;;;18.52;96.46
12471;BME280;36499;46.484;13.832;2022-08-19T01:05:23;92767.91;;;18.46;96.49
12471;BME280;36499;46.484;13.832;2022-08-19T01:07:54;92769.22;;;18.44;97.14
12471;BME280;36499;46.484;13.832;2022-08-19T01:10:27;92772.91;;;18.48;96.90
12471;BME280;36499;46.484;13.832;2022-08-19T01:12:58;92771.88;;;18.49;94.77
12471;BME280;36499;46.484;13.832;2022-08-19T01:15:31;92770.28;;;18.43;94.71
12471;BME280;36499;46.484;13.832;2022-08-19T01:18:06;92784.81;;;18.35;95.65
12471;BME280;36499;46.484;13.832;2022-08-19T01:20:35;92771.91;;;18.34;95.57
12471;BME280;36499;46.484;13.832;2022-08-19T01:23:03;92784.03;;;18.35;96.41
12471;BME280;36499;46.484;13.832;2022-08-19T01:25:38;92777.44;;;18.37;96.54
12471;BME280;36499;46.484;13.832;2022-08-19T01:28:07;92769.78;;;18.41;96.54
12471;BME280;36499;46.484;13.832;2022-08-19T01:30:35;92757.38;;;18.41;96.92
12471;BME280;36499;46.484;13.832;2022-08-19T01:33:02;92778.75;;;18.35;96.82
12471;BME280;36499;46.484;13.832;2022-08-19T01:35:31;92787.75;;;18.29;96.72
12471;BME280;36499;46.484;13.832;2022-08-19T01:38:05;92789.06;;;18.16;97.66
12471;BME280;36499;46.484;13.832;2022-08-19T01:40:37;92812.56;;;17.97;99.93
12471;BME280;36499;46.484;13.832;2022-08-19T01:43:06;92818.88;;;17.96;100.00
12471;BME280;36499;46.484;13.832;2022-08-19T01:45:35;92780.63;;;17.89;100.00
12471;BME280;36499;46.484;13.832;2022-08-19T01:48:06;92749.78;;;17.89;100.00
12471;BME280;36499;46.484;13.832;2022-08-19T01:50:36;92723.41;;;17.94;100.00
12471;BME280;36499;46.484;13.832;2022-08-19T01:53:09;92738.69;;;18.07;100.00
12471;BME280;36499;46.484;13.832;2022-08-19T01:55:40;92752.41;;;18.04;99.96
12471;BME280;36499;46.484;13.832;2022-08-19T01:58:13;92757.94;;;18.18;99.13
12471;BME280;36499;46.484;13.832;2022-08-19T02:00:42;92767.16;;;18.15;99.42
12471;BME280;36499;46.484;13.832;2022-08-19T02:03:09;92776.69;;;18.06;100.00
12471;BME280;36499;46.484;13.832;2022-08-19T02:05:37;92785.63;;;18.26;98.43
12471;BME280;36499;46.484;13.832;2022-08-19T02:08:06;92791.44;;;18.22;98.17
12471;BME280;36499;46.484;13.832;2022-08-19T02:10:39;92799.09;;;18.14;98.47
12471;BME280;36499;46.484;13.832;2022-08-19T02:13:11;92806.75;;;18.26;97.89
12471;BME280;36499;46.484;13.832;2022-08-19T02:15:39;92821.00;;;18.25;98.01
12471;BME280;36499;46.484;13.832;2022-08-19T02:18:07;92841.03;;;18.31;97.96
12471;BME280;36499;46.484;13.832;2022-08-19T02:20:34;92868.75;;;18.28;98.08
12471;BME280;36499;46.484;13.832;2022-08-19T02:23:01;92907.56;;;18.43;97.11
12471;BME280;36499;46.484;13.832;2022-08-19T02:25:30;92922.66;;;18.52;96.71
12471;BME280;36499;46.484;13.832;2022-08-19T02:27:57;92950.06;;;18.46;97.53
12471;BME280;36499;46.484;13.832;2022-08-19T02:30:25;92958.50;;;18.43;98.16
12471;BME280;36499;46.484;13.832;2022-08-19T02:32:52;92961.66;;;18.45;98.19
12471;BME280;36499;46.484;13.832;2022-08-19T02:35:20;92957.97;;;18.46;98.58
12471;BME280;36499;46.484;13.832;2022-08-19T02:37:48;92975.69;;;18.41;98.39
12471;BME280;36499;46.484;13.832;2022-08-19T02:40:34;92985.72;;;18.44;98.27
12471;BME280;36499;46.484;13.832;2022-08-19T02:43:07;92961.41;;;18.47;98.38
12471;BME280;36499;46.484;13.832;2022-08-19T02:45:37;92970.13;;;18.47;98.33
12471;BME280;36499;46.484;13.832;2022-08-19T02:48:05;92957.47;;;18.44;98.35
12471;BME280;36499;46.484;13.832;2022-08-19T02:50:32;92955.06;;;18.43;98.90
12471;BME280;36499;46.484;13.832;2022-08-19T02:52:59;92936.34;;;18.44;98.55
12471;BME280;36499;46.484;13.832;2022-08-19T02:55:26;92910.22;;;18.48;99.04
12471;BME280;36499;46.484;13.832;2022-08-19T02:57:55;92879.06;;;18.45;98.79
12471;BME280;36499;46.484;13.832;2022-08-19T03:00:22;92862.97;;;18.41;98.36
12471;BME280;36499;46.484;13.832;2022-08-19T03:02:50;92881.44;;;18.41;98.48
12471;BME280;36499;46.484;13.832;2022-08-19T03:05:17;92892.78;;;18.32;98.57
12471;BME280;36499;46.484;13.832;2022-08-19T03:07:45;92891.19;;;18.15;100.00
12471;BME280;36499;46.484;13.832;2022-08-19T03:10:13;92895.94;;;17.98;100.00
12471;BME280;36499;46.484;13.832;2022-08-19T03:12:40;92913.34;;;17.94;100.00
12471;BME280;36499;46.484;13.832;2022-08-19T03:15:09;92927.56;;;17.93;100.00
12471;BME280;36499;46.484;13.832;2022-08-19T03:17:36;92957.63;;;17.92;100.00
12471;BME280;36499;46.484;13.832;2022-08-19T03:20:05;92969.75;;;17.88;100.00
12471;BME280;36499;46.484;13.832;2022-08-19T03:22:32;92956.34;;;17.95;100.00
12471;BME280;36499;46.484;13.832;2022-08-19T03:24:59;92958.97;;;18.05;100.00
12471;BME280;36499;46.484;13.832;2022-08-19T03:27:26;92933.41;;;18.15;98.24
12471;BME280;36499;46.484;13.832;2022-08-19T03:29:54;92936.56;;;18.12;97.92
12471;BME280;36499;46.484;13.832;2022-08-19T03:32:23;92933.16;;;18.17;97.37
12471;BME280;36499;46.484;13.832;2022-08-19T03:34:50;92910.16;;;18.07;97.74
12471;BME280;36499;46.484;13.832;2022-08-19T03:37:18;92886.72;;;18.21;96.85
12471;BME280;36499;46.484;13.832;2022-08-19T03:39:45;92891.19;;;18.26;96.87
12471;BME280;36499;46.484;13.832;2022-08-19T03:42:12;92881.16;;;18.22;98.09
12471;BME280;36499;46.484;13.832;2022-08-19T03:44:39;92861.88;;;18.27;98.04
12471;BME280;36499;46.484;13.832;2022-08-19T03:47:08;92863.47;;;18.28;97.65
12471;BME280;36499;46.484;13.832;2022-08-19T03:49:36;92870.34;;;18.24;98.18
12471;BME280;36499;46.484;13.832;2022-08-19T03:52:04;92875.09;;;18.22;98.19
12471;BME280;36499;46.484;13.832;2022-08-19T03:54:35;92884.88;;;18.21;98.72
12471;BME280;36499;46.484;13.832;2022-08-19T03:57:04;92872.47;;;18.17;98.70
12471;BME280;36499;46.484;13.832;2022-08-19T03:59:33;92864.81;;;18.05;98.18
12471;BME280;36499;46.484;13.832;2022-08-19T04:02:07;92858.97;;;17.93;99.24
12471;BME280;36499;46.484;13.832;2022-08-19T04:04:37;92847.09;;;17.86;99.54
12471;BME280;36499;46.484;13.832;2022-08-19T04:07:04;92831.56;;;17.79;100.00
12471;BME280;36499;46.484;13.832;2022-08-19T04:09:34;92833.91;;;17.86;100.00
12471;BME280;36499;46.484;13.832;2022-08-19T04:12:03;92836.31;;;17.87;100.00
12471;BME280;36499;46.484;13.832;2022-08-19T04:14:32;92852.41;;;17.91;100.00
12471;BME280;36499;46.484;13.832;2022-08-19T04:17:01;92855.03;;;17.91;100.00
12471;BME280;36499;46.484;13.832;2022-08-19T04:19:30;92875.84;;;17.92;100.00
12471;BME280;36499;46.484;13.832;2022-08-19T04:21:59;92885.91;;;17.95;99.89
12471;BME280;36499;46.484;13.832;2022-08-19T04:24:26;92896.19;;;17.87;98.69
12471;BME280;36499;46.484;13.832;2022-08-19T04:26:54;92897.47;;;17.79;97.12
12471;BME280;36499;46.484;13.832;2022-08-19T04:29:25;92899.06;;;17.80;97.15
12471;BME280;36499;46.484;13.832;2022-08-19T04:31:54;92898.53;;;17.83;96.13
12471;BME280;36499;46.484;13.832;2022-08-19T04:34:26;92900.13;;;17.94;95.75
12471;BME280;36499;46.484;13.832;2022-08-19T04:36:56;92904.63;;;17.99;96.09
12471;BME280;36499;46.484;13.832;2022-08-19T04:39:29;92898.56;;;17.93;97.76
12471;BME280;36499;46.484;13.832;2022-08-19T04:42:11;92882.75;;;17.98;97.55
12471;BME280;36499;46.484;13.832;2022-08-19T04:44:56;92882.75;;;17.98;97.26
12471;BME280;36499;46.484;13.832;2022-08-19T04:47:24;92900.13;;;17.94;98.34
12471;BME280;36499;46.484;13.832;2022-08-19T04:49:51;92927.53;;;17.88;98.26
12471;BME280;36499;46.484;13.832;2022-08-19T04:52:18;92932.78;;;17.73;99.03
12471;BME280;36499;46.484;13.832;2022-08-19T04:54:47;92935.94;;;17.65;100.00
12471;BME280;36499;46.484;13.832;2022-08-19T04:57:14;92916.41;;;17.66;99.90
12471;BME280;36499;46.484;13.832;2022-08-19T04:59:41;92926.41;;;17.54;100.00
12471;BME280;36499;46.484;13.832;2022-08-19T05:02:09;92933.19;;;17.45;100.00
12471;BME280;36499;46.484;13.832;2022-08-19T05:04:37;92921.13;;;17.54;100.00
12471;BME280;36499;46.484;13.832;2022-08-19T05:07:05;92943.28;;;17.58;100.00
12471;BME280;36499;46.484;13.832;2022-08-19T05:09:34;92977.22;;;17.44;100.00
12471;BME280;36499;46.484;13.832;2022-08-19T05:12:03;92987.50;;;17.46;100.00
12471;BME280;36499;46.484;13.832;2022-08-19T05:14:31;92972.97;;;17.43;100.00
12471;BME280;36499;46.484;13.832;2022-08-19T05:16:58;92973.00;;;17.48;100.00
12471;BME280;36499;46.484;13.832;2022-08-19T05:19:25;92975.41;;;17.55;100.00
12471;BME280;36499;46.484;13.832;2022-08-19T05:22:24;92979.44;;;17.67;99.34
12471;BME280;36499;46.484;13.832;2022-08-19T05:25:06;92975.28;;;17.77;99.48
12471;BME280;36499;46.484;13.832;2022-08-19T05:27:35;92971.88;;;17.86;99.48
12471;BME280;36499;46.484;13.832;2022-08-19T05:30:05;92960.78;;;17.89;99.05
12471;BME280;36499;46.484;13.832;2022-08-19T05:32:32;92959.44;;;17.82;99.19
12471;BME280;36499;46.484;13.832;2022-08-19T05:34:59;92942.84;;;17.81;99.08
12471;BME280;36499;46.484;13.832;2022-08-19T05:37:26;92944.41;;;17.82;99.19
12471;BME280;36499;46.484;13.832;2022-08-19T05:39:54;92957.09;;;17.80;98.49
12471;BME280;36499;46.484;13.832;2022-08-19T05:42:22;92950.19;;;17.69;98.61
12471;BME280;36499;46.484;13.832;2022-08-19T05:44:51;92944.13;;;17.73;98.76
12471;BME280;36499;46.484;13.832;2022-08-19T05:47:19;92940.19;;;17.76;98.85
12471;BME280;36499;46.484;13.832;2022-08-19T05:49:47;92941.50;;;17.79;98.43
12471;BME280;36499;46.484;13.832;2022-08-19T05:52:15;92936.50;;;17.72;98.13
12471;BME280;36499;46.484;13.832;2022-08-19T05:54:43;92938.34;;;17.77;97.66
12471;BME280;36499;46.484;13.832;2022-08-19T05:57:14;92944.66;;;17.81;97.34
12471;BME280;36499;46.484;13.832;2022-08-19T05:59:41;92946.81;;;17.84;97.15
12471;BME280;36499;46.484;13.832;2022-08-19T06:02:11;92948.94;;;17.87;97.63
12471;BME280;36499;46.484;13.832;2022-08-19T06:04:39;92926.53;;;17.94;97.70
12471;BME280;36499;46.484;13.832;2022-08-19T06:07:08;92895.41;;;18.01;97.25
12471;BME280;36499;46.484;13.832;2022-08-19T06:09:35;92908.59;;;18.01;95.89
12471;BME280;36499;46.484;13.832;2022-08-19T06:12:03;92895.94;;;17.98;95.78
12471;BME280;36499;46.484;13.832;2022-08-19T06:14:34;92902.81;;;17.99;96.20
12471;BME280;36499;46.484;13.832;2022-08-19T06:17:02;92899.63;;;18.02;96.59
12471;BME280;36499;46.484;13.832;2022-08-19T06:19:31;92881.69;;;18.04;95.86
12471;BME280;36499;46.484;13.832;2022-08-19T06:21:59;92869.03;;;18.06;96.75
12471;BME280;36499;46.484;13.832;2022-08-19T06:24:29;92872.72;;;17.95;95.22
12471;BME280;36499;46.484;13.832;2022-08-19T06:26:58;92875.09;;;18.07;95.18
12471;BME280;36499;46.484;13.832;2022-08-19T06:29:27;92871.13;;;18.04;93.76
12471;BME280;36499;46.484;13.832;2022-08-19T06:31:58;92885.91;;;18.05;93.25
12471;BME280;36499;46.484;13.832;2022-08-19T06:34:28;92881.44;;;18.06;93.54
12471;BME280;36499;46.484;13.832;2022-08-19T06:36:59;92878.78;;;18.06;94.77
12471;BME280;36499;46.484;13.832;2022-08-19T06:39:32;92882.75;;;18.08;96.02
12471;BME280;36499;46.484;13.832;2022-08-19T06:42:03;92867.97;;;17.97;92.60
12471;BME280;36499;46.484;13.832;2022-08-19T06:44:35;92860.06;;;18.02;92.75
12471;BME280;36499;46.484;13.832;2022-08-19T06:47:07;92852.66;;;18.04;93.50
12471;BME280;36499;46.484;13.832;2022-08-19T06:49:35;92857.41;;;18.07;94.62
12471;BME280;36499;46.484;13.832;2022-08-19T06:52:05;92867.16;;;18.12;94.18
12471;BME280;36499;46.484;13.832;2022-08-19T06:54:32;92867.72;;;18.14;94.95
12471;BME280;36499;46.484;13.832;2022-08-19T06:57:01;92860.34;;;18.11;93.31
12471;BME280;36499;46.484;13.832;2022-08-19T06:59:30;92851.63;;;18.10;93.36
12471;BME280;36499;46.484;13.832;2022-08-19T07:02:00;92842.63;;;18.11;94.66
12471;BME280;36499;46.484;13.832;2022-08-19T07:04:30;92843.69;;;18.15;94.79
12471;BME280;36499;46.484;13.832;2022-08-19T07:07:00;92844.75;;;18.19;93.13
12471;BME280;36499;46.484;13.832;2022-08-19T07:09:32;92848.19;;;18.25;92.73
12471;BME280;36499;46.484;13.832;2022-08-19T07:11:59;92849.75;;;18.31;94.28
12471;BME280;36499;46.484;13.832;2022-08-19T07:14:27;92857.69;;;18.41;93.82
12471;BME280;36499;46.484;13.832;2022-08-19T07:16:56;92857.66;;;18.46;93.08
12471;BME280;36499;46.484;13.832;2022-08-19T07:19:26;92851.34;;;18.52;93.73
12471;BME280;36499;46.484;13.832;2022-08-19T07:21:55;92838.91;;;18.63;94.41
12471;BME280;36499;46.484;13.832;2022-08-19T07:24:24;92830.22;;;18.67;92.95
12471;BME280;36499;46.484;13.832;2022-08-19T07:26:59;92826.47;;;18.74;92.04
12471;BME280;36499;46.484;13.832;2022-08-19T07:29:32;92818.03;;;18.72;91.06
12471;BME280;36499;46.484;13.832;2022-08-19T07:32:01;92828.03;;;18.80;91.75
12471;BME280;36499;46.484;13.832;2022-08-19T07:34:31;92827.53;;;18.83;91.17
12471;BME280;36499;46.484;13.832;2022-08-19T07:37:00;92815.88;;;18.89;90.94
12471;BME280;36499;46.484;13.832;2022-08-19T07:39:32;92815.06;;;18.98;91.67
12471;BME280;36499;46.484;13.832;2022-08-19T07:42:06;92825.88;;;19.02;90.77
12471;BME280;36499;46.484;13.832;2022-08-19T07:44:36;92815.56;;;19.00;89.75
12471;BME280;36499;46.484;13.832;2022-08-19T07:47:04;92814.56;;;18.81;87.98
12471;BME280;36499;46.484;13.832;2022-08-19T07:49:32;92814.56;;;18.76;88.54
12471;BME280;36499;46.484;13.832;2022-08-19T07:52:03;92812.97;;;18.85;89.21
12471;BME280;36499;46.484;13.832;2022-08-19T07:54:34;92825.63;;;18.88;89.24
12471;BME280;36499;46.484;13.832;2022-08-19T07:57:04;92814.28;;;18.88;89.11
12471;BME280;36499;46.484;13.832;2022-08-19T07:59:33;92814.03;;;18.89;89.73
12471;BME280;36499;46.484;13.832;2022-08-19T08:02:00;92807.13;;;18.93;89.88
12471;BME280;36499;46.484;13.832;2022-08-19T08:04:28;92806.03;;;18.99;88.55
12471;BME280;36499;46.484;13.832;2022-08-19T08:07:14;92814.50;;;19.01;89.85
12471;BME280;36499;46.484;13.832;2022-08-19T08:09:59;92821.34;;;19.07;90.10
12471;BME280;36499;46.484;13.832;2022-08-19T08:12:32;92812.38;;;19.03;88.95
12471;BME280;36499;46.484;13.832;2022-08-19T08:15:07;92817.41;;;19.05;89.92
12471;BME280;36499;46.484;13.832;2022-08-19T08:17:35;92814.47;;;19.06;90.55
12471;BME280;36499;46.484;13.832;2022-08-19T08:20:04;92803.38;;;19.09;90.51
12471;BME280;36499;46.484;13.832;2022-08-19T08:22:33;92794.91;;;19.12;90.32
12471;BME280;36499;46.484;13.832;2022-08-19T08:25:21;92786.13;;;19.22;90.95
12471;BME280;36499;46.484;13.832;2022-08-19T08:27:50;92801.72;;;19.24;91.25
12471;BME280;36499;46.484;13.832;2022-08-19T08:30:25;92802.22;;;19.31;90.17
12471;BME280;36499;46.484;13.832;2022-08-19T08:32:53;92803.78;;;19.32;90.28
12471;BME280;36499;46.484;13.832;2022-08-19T08:35:22;92817.28;;;19.30;89.61
12471;BME280;36499;46.484;13.832;2022-08-19T08:37:54;92815.50;;;19.21;89.59
12471;BME280;36499;46.484;13.832;2022-08-19T08:40:28;92814.41;;;19.22;89.98
12471;BME280;36499;46.484;13.832;2022-08-19T08:43:05;92801.97;;;19.22;90.89
12471;BME280;36499;46.484;13.832;2022-08-19T08:45:38;92802.75;;;19.28;92.45
12471;BME280;36499;46.484;13.832;2022-08-19T08:48:18;92800.88;;;19.33;91.53
12471;BME280;36499;46.484;13.832;2022-08-19T08:50:49;92807.25;;;19.27;90.11
12471;BME280;36499;46.484;13.832;2022-08-19T08:53:20;92807.50;;;19.26;89.74
12471;BME280;36499;46.484;13.832;2022-08-19T08:55:48;92801.97;;;19.27;90.19
12471;BME280;36499;46.484;13.832;2022-08-19T08:58:25;92805.66;;;19.26;90.03
12471;BME280;36499;46.484;13.832;2022-08-19T09:00:54;92810.69;;;19.28;90.10
12471;BME280;36499;46.484;13.832;2022-08-19T09:03:25;92818.13;;;19.21;87.97
12471;BME280;36499;46.484;13.832;2022-08-19T09:06:00;92827.91;;;19.15;86.07
12471;BME280;36499;46.484;13.832;2022-08-19T09:08:40;92817.09;;;19.11;85.41
12471;BME280;36499;46.484;13.832;2022-08-19T09:11:22;92823.97;;;19.12;87.60
12471;BME280;36499;46.484;13.832;2022-08-19T09:14:08;92830.84;;;19.13;89.58
12471;BME280;36499;46.484;13.832;2022-08-19T09:16:38;92822.63;;;19.20;90.87
12471;BME280;36499;46.484;13.832;2022-08-19T09:19:07;92812.56;;;19.22;91.75
12471;BME280;36499;46.484;13.832;2022-08-19T09:21:37;92829.22;;;19.23;91.23
12471;BME280;36499;46.484;13.832;2022-08-19T09:24:06;92822.06;;;19.23;92.06
12471;BME280;36499;46.484;13.832;2022-08-19T09:26:33;92814.47;;;19.11;90.32
12471;BME280;36499;46.484;13.832;2022-08-19T09:29:03;92816.63;;;18.99;90.35
12471;BME280;36499;46.484;13.832;2022-08-19T09:31:32;92820.66;;;18.82;89.76
12471;BME280;36499;46.484;13.832;2022-08-19T09:33:59;92827.78;;;18.86;89.10
12471;BME280;36499;46.484;13.832;2022-08-19T09:36:30;92832.00;;;18.72;89.28
12471;BME280;36499;46.484;13.832;2022-08-19T09:38:59;92828.63;;;18.66;90.73
12471;BME280;36499;46.484;13.832;2022-08-19T09:41:27;92824.38;;;18.60;90.83
12471;BME280;36499;46.484;13.832;2022-08-19T09:43:56;92823.06;;;18.63;89.72
12471;BME280;36499;46.484;13.832;2022-08-19T09:46:28;92832.59;;;18.44;89.79
12471;BME280;36499;46.484;13.832;2022-08-19T09:49:00;92830.22;;;18.27;91.34
12471;BME280;36499;46.484;13.832;2022-08-19T09:51:28;92832.34;;;18.20;92.73
12471;BME280;36499;46.484;13.832;2022-08-19T09:54:00;92826.81;;;18.21;93.69
12471;BME280;36499;46.484;13.832;2022-08-19T09:56:29;92819.94;;;18.26;92.18
12471;BME280;36499;46.484;13.832;2022-08-19T09:58:58;92816.25;;;18.21;90.49
12471;BME280;36499;46.484;13.832;2022-08-19T10:01:30;92817.81;;;18.22;90.93
12471;BME280;36499;46.484;13.832;2022-08-19T10:03:59;92818.34;;;18.25;91.24
12471;BME280;36499;46.484;13.832;2022-08-19T10:06:29;92808.31;;;18.27;92.13
12471;BME280;36499;46.484;13.832;2022-08-19T10:08:58;92817.81;;;18.33;92.14
12471;BME280;36499;46.484;13.832;2022-08-19T10:11:26;92829.16;;;18.28;91.78
12471;BME280;36499;46.484;13.832;2022-08-19T10:13:54;92831.03;;;18.33;90.72
12471;BME280;36499;46.484;13.832;2022-08-19T10:16:24;92840.53;;;18.34;91.74
12471;BME280;36499;46.484;13.832;2022-08-19T10:18:54;92835.75;;;18.31;92.18
12471;BME280;36499;46.484;13.832;2022-08-19T10:21:24;92838.66;;;18.24;89.29
12471;BME280;36499;46.484;13.832;2022-08-19T10:23:55;92832.59;;;18.29;89.20
12471;BME280;36499;46.484;13.832;2022-08-19T10:26:26;92839.72;;;18.28;90.77
12471;BME280;36499;46.484;13.832;2022-08-19T10:28:55;92833.94;;;18.26;91.91
12471;BME280;36499;46.484;13.832;2022-08-19T10:31:26;92834.47;;;18.33;91.68
12471;BME280;36499;46.484;13.832;2022-08-19T10:33:56;92847.66;;;18.18;92.67
12471;BME280;36499;46.484;13.832;2022-08-19T10:36:28;92857.41;;;18.07;92.92
12471;BME280;36499;46.484;13.832;2022-08-19T10:38:58;92858.44;;;17.71;94.34
12471;BME280;36499;46.484;13.832;2022-08-19T10:41:30;92850.25;;;17.67;95.45
12471;BME280;36499;46.484;13.832;2022-08-19T10:44:02;92854.41;;;17.53;96.32
12471;BME280;36499;46.484;13.832;2022-08-19T10:46:31;92850.94;;;17.43;96.60
12471;BME280;36499;46.484;13.832;2022-08-19T10:49:01;92834.66;;;17.56;95.96
12471;BME280;36499;46.484;13.832;2022-08-19T10:51:28;92823.88;;;17.62;94.33
12471;BME280;36499;46.484;13.832;2022-08-19T10:54:13;92813.06;;;17.74;95.92
12471;BME280;36499;46.484;13.832;2022-08-19T10:56:41;92814.94;;;17.79;96.94
12471;BME280;36499;46.484;13.832;2022-08-19T10:59:25;92812.56;;;17.87;96.60
12471;BME280;36499;46.484;13.832;2022-08-19T11:01:58;92797.53;;;17.93;96.08
12471;BME280;36499;46.484;13.832;2022-08-19T11:04:27;92801.47;;;18.00;96.87
12471;BME280;36499;46.484;13.832;2022-08-19T11:06:57;92791.19;;;18.09;96.70
12471;BME280;36499;46.484;13.832;2022-08-19T11:09:26;92787.47;;;18.15;97.08
12471;BME280;36499;46.484;13.832;2022-08-19T11:11:53;92792.00;;;18.14;96.32
12471;BME280;36499;46.484;13.832;2022-08-19T11:14:23;92811.25;;;18.25;96.70
12471;BME280;36499;46.484;13.832;2022-08-19T11:16:52;92821.25;;;18.33;95.58
12471;BME280;36499;46.484;13.832;2022-08-19T11:19:22;92814.91;;;18.44;96.62
12471;BME280;36499;46.484;13.832;2022-08-19T11:21:52;92814.38;;;18.57;95.42
12471;BME280;36499;46.484;13.832;2022-08-19T11:24:24;92800.91;;;18.54;94.00
12471;BME280;36499;46.484;13.832;2022-08-19T11:26:54;92786.66;;;18.60;92.83
12471;BME280;36499;46.484;13.832;2022-08-19T11:29:28;92792.13;;;18.79;92.14
12471;BME280;36499;46.484;13.832;2022-08-19T11:31:55;92802.34;;;18.95;89.20
12471;BME280;36499;46.484;13.832;2022-08-19T11:34:25;92784.50;;;19.26;89.98
12471;BME280;36499;46.484;13.832;2022-08-19T11:36:56;92790.00;;;19.40;88.08
12471;BME280;36499;46.484;13.832;2022-08-19T11:39:27;92782.72;;;19.66;87.79
12471;BME280;36499;46.484;13.832;2022-08-19T11:41:58;92771.84;;;19.67;87.13
12471;BME280;36499;46.484;13.832;2022-08-19T11:44:26;92770.84;;;19.63;86.35
12471;BME280;36499;46.484;13.832;2022-08-19T11:46:56;92779.25;;;19.70;86.40
12471;BME280;36499;46.484;13.832;2022-08-19T11:49:26;92775.13;;;19.59;84.30
12471;BME280;36499;46.484;13.832;2022-08-19T11:51:54;92775.13;;;19.59;84.78
12471;BME280;36499;46.484;13.832;2022-08-19T11:54:21;92783.34;;;19.52;85.04
12471;BME280;36499;46.484;13.832;2022-08-19T11:56:48;92791.56;;;19.46;86.23
12471;BME280;36499;46.484;13.832;2022-08-19T11:59:15;92802.19;;;19.36;87.59
12471;BME280;36499;46.484;13.832;2022-08-19T12:01:42;92817.34;;;19.20;87.58
12471;BME280;36499;46.484;13.832;2022-08-19T12:04:10;92828.72;;;19.10;87.90
12471;BME280;36499;46.484;13.832;2022-08-19T12:06:40;92821.34;;;19.02;87.55
12471;BME280;36499;46.484;13.832;2022-08-19T12:09:10;92834.84;;;18.96;87.57
12471;BME280;36499;46.484;13.832;2022-08-19T12:11:38;92841.72;;;19.02;88.46
12471;BME280;36499;46.484;13.832;2022-08-19T12:14:09;92844.09;;;19.03;90.27
12471;BME280;36499;46.484;13.832;2022-08-19T12:16:37;92855.97;;;19.06;91.67
12471;BME280;36499;46.484;13.832;2022-08-19T12:19:05;92867.84;;;19.08;91.61
12471;BME280;36499;46.484;13.832;2022-08-19T12:21:35;92862.56;;;19.08;91.27
12471;BME280;36499;46.484;13.832;2022-08-19T12:24:05;92865.72;;;19.10;91.65
12471;BME280;36499;46.484;13.832;2022-08-19T12:26:35;92864.94;;;19.10;91.87
12471;BME280;36499;46.484;13.832;2022-08-19T12:29:03;92870.75;;;19.12;91.87
12471;BME280;36499;46.484;13.832;2022-08-19T12:31:30;92867.31;;;19.11;92.24
12471;BME280;36499;46.484;13.832;2022-08-19T12:33:58;92883.97;;;19.12;92.72
12471;BME280;36499;46.484;13.832;2022-08-19T12:36:28;92884.75;;;19.12;92.83
12471;BME280;36499;46.484;13.832;2022-08-19T12:38:58;92907.50;;;19.03;93.54
12471;BME280;36499;46.484;13.832;2022-08-19T12:41:26;92905.16;;;19.02;93.23
12471;BME280;36499;46.484;13.832;2022-08-19T12:43:54;92901.72;;;19.01;94.21
12471;BME280;36499;46.484;13.832;2022-08-19T12:46:21;92907.25;;;18.95;94.31
12471;BME280;36499;46.484;13.832;2022-08-19T12:48:49;92897.00;;;18.83;93.57
12471;BME280;36499;46.484;13.832;2022-08-19T12:51:18;92900.69;;;18.72;94.69
12471;BME280;36499;46.484;13.832;2022-08-19T12:53:47;92898.88;;;18.67;95.53
12471;BME280;36499;46.484;13.832;2022-08-19T12:56:15;92902.00;;;18.64;94.41
12471;BME280;36499;46.484;13.832;2022-08-19T12:58:43;92894.66;;;18.51;95.13
12471;BME280;36499;46.484;13.832;2022-08-19T13:01:16;92906.50;;;18.44;95.12